Home > Products > Valid Products > TAF

000
FTUS41 KALY 031314 AAA
TAFGFL
TAF AMD
KGFL 031314Z 0313/0412 VRB03KT 3SM BR BKN002
      TEMPO 0313/0314 6SM BR SCT002 BKN250
     FM031400 05004KT P6SM SCT080 BKN250
     FM031800 03006KT P6SM VCSH BKN070
     FM040200 04009KT P6SM FEW080 BKN200
     FM041100 02004KT P6SM FEW035=



000
FTUS41 KALY 031143
TAFGFL
TAF
KGFL 031143Z 0312/0412 VRB03KT 4SM BR SCT008 BKN012
      TEMPO 0312/0313 1SM BR BKN007 BKN250
     FM031400 05004KT P6SM SCT080 BKN250
     FM031800 03006KT P6SM VCSH BKN070
     FM040200 04009KT P6SM FEW080 BKN200
     FM041100 02004KT P6SM FEW035=



000
FTUS41 KALY 031143
TAFALB
TAF
KALB 031143Z 0312/0412 00000KT 6SM BR MIFG FEW250
     FM031300 34005KT P6SM SCT080 BKN250
     FM032000 36006KT P6SM VCSH BKN070
     FM040300 02008KT P6SM FEW080 BKN200
     FM041100 03005KT P6SM SCT025 BKN040=



000
FTUS41 KALY 031143
TAFGFL
TAF
KGFL 031143Z 0312/0412 VRB03KT 4SM BR SCT008 BKN012
      TEMPO 0312/0313 1SM BR BKN007 BKN250
     FM031400 05004KT P6SM SCT080 BKN250
     FM031800 03006KT P6SM VCSH BKN070
     FM040200 04009KT P6SM FEW080 BKN200
     FM041100 02004KT P6SM FEW035=



000
FTUS41 KALY 031143
TAFPOU
TAF
KPOU 031143Z 0312/0412 00000KT 6SM BR SCT250
     FM031300 33003KT P6SM FEW060 SCT250
     FM032200 35005KT P6SM VCSH BKN070
     FM040400 03004KT P6SM SCT040 BKN080
     FM041000 04005KT 6SM BR SCT025 BKN035=



000
FTUS41 KALY 031143
TAFALB
TAF
KALB 031143Z 0312/0412 00000KT 6SM BR MIFG FEW250
     FM031300 34005KT P6SM SCT080 BKN250
     FM032000 36006KT P6SM VCSH BKN070
     FM040300 02008KT P6SM FEW080 BKN200
     FM041100 03005KT P6SM SCT025 BKN040=



000
FTUS41 KALY 031143
TAFPOU
TAF
KPOU 031143Z 0312/0412 00000KT 6SM BR SCT250
     FM031300 33003KT P6SM FEW060 SCT250
     FM032200 35005KT P6SM VCSH BKN070
     FM040400 03004KT P6SM SCT040 BKN080
     FM041000 04005KT 6SM BR SCT025 BKN035=



000
FTUS41 KALY 030807 AAA
TAFPOU
TAF AMD
KPOU 030807Z 0308/0406 00000KT 6SM BR SCT250
      TEMPO 0308/0312 3SM BR FEW005
     FM031300 33003KT P6SM FEW060 SCT250
     FM032200 35005KT P6SM VCSH BKN070
     FM040400 03004KT P6SM SCT040 BKN080=



000
FTUS41 KALY 030755 AAA
TAFALB
TAF AMD
KALB 030755Z 0308/0406 00000KT 6SM BR MIFG FEW250
      TEMPO 0308/0312 3SM BR SCT005 BKN250
     FM031300 34005KT P6SM SCT080 BKN250
     FM032000 36006KT P6SM VCSH BKN070
     FM040300 02008KT P6SM FEW080 BKN200=



000
FTUS41 KALY 030753 AAA
TAFGFL
TAF AMD
KGFL 030753Z 0308/0406 VRB03KT 5SM BR BKN250
      TEMPO 0308/0312 1/2SM FG BKN002
     FM031300 05004KT P6SM SCT080 BKN250
     FM031800 03006KT P6SM VCSH BKN070
     FM040200 04009KT P6SM FEW080 BKN200=



000
FTUS41 KALY 030753 AAA
TAFGFL
TAF AMD
KGFL 030753Z 0308/0406 VRB03KT 5SM BR BKN250
      TEMPO 0308/0312 1/2SM FG BKN002
     FM031300 05004KT P6SM SCT080 BKN250
     FM031800 03006KT P6SM VCSH BKN070
     FM040200 04009KT P6SM FEW080 BKN200=



000
FTUS41 KALY 030520
TAFGFL
TAF
KGFL 030520Z 0306/0406 VRB03KT 5SM BR BKN250
      TEMPO 0306/0308 1 1/2SM BR BKN005
     FM031300 05004KT P6SM SCT080 BKN250
     FM031800 03006KT P6SM VCSH BKN070
     FM040200 04009KT P6SM FEW080 BKN200=



000
FTUS41 KALY 030520
TAFGFL
TAF
KGFL 030520Z 0306/0406 VRB03KT 5SM BR BKN250
      TEMPO 0306/0308 1 1/2SM BR BKN005
     FM031300 05004KT P6SM SCT080 BKN250
     FM031800 03006KT P6SM VCSH BKN070
     FM040200 04009KT P6SM FEW080 BKN200=



000
FTUS41 KALY 030520
TAFALB
TAF
KALB 030520Z 0306/0406 VRB03KT 6SM BR SCT250
     FM030800 00000KT 4SM BR SCT005
     FM031300 34005KT P6SM SCT080 BKN250
     FM032000 36006KT P6SM VCSH BKN070
     FM040300 02008KT P6SM FEW080 BKN200=



000
FTUS41 KALY 030520
TAFPOU
TAF
KPOU 030520Z 0306/0406 00000KT P6SM FEW250
     FM030800 00000KT 4SM BR SCT250
     FM031300 33003KT P6SM FEW060 SCT250
     FM032200 35005KT P6SM VCSH BKN070
     FM040400 03004KT P6SM SCT040 BKN080=



000
FTUS41 KALY 030520
TAFPOU
TAF
KPOU 030520Z 0306/0406 00000KT P6SM FEW250
     FM030800 00000KT 4SM BR SCT250
     FM031300 33003KT P6SM FEW060 SCT250
     FM032200 35005KT P6SM VCSH BKN070
     FM040400 03004KT P6SM SCT040 BKN080=



000
FTUS41 KALY 030520
TAFALB
TAF
KALB 030520Z 0306/0406 VRB03KT 6SM BR SCT250
     FM030800 00000KT 4SM BR SCT005
     FM031300 34005KT P6SM SCT080 BKN250
     FM032000 36006KT P6SM VCSH BKN070
     FM040300 02008KT P6SM FEW080 BKN200=



000
FTUS41 KALY 030257 AAA
TAFGFL
TAF AMD
KGFL 030257Z 0303/0324 00000KT 6SM BR SKC
      TEMPO 0303/0306 1SM BR SCT002
     FM030600 00000KT 1/2SM FG VV002
     FM031300 06005KT P6SM BKN050
     FM032000 06005KT P6SM VCSH BKN050=



000
FTUS41 KALY 030257 AAA
TAFGFL
TAF AMD
KGFL 030257Z 0303/0324 00000KT 6SM BR SKC
      TEMPO 0303/0306 1SM BR SCT002
     FM030600 00000KT 1/2SM FG VV002
     FM031300 06005KT P6SM BKN050
     FM032000 06005KT P6SM VCSH BKN050=



000
FTUS41 KALY 022333
TAFALB
TAF
KALB 022333Z 0300/0324 VRB05KT P6SM SKC
     FM030800 00000KT 3SM BR FEW005
     FM031300 34005KT P6SM SCT050
     FM032100 34005KT P6SM VCSH BKN050=



000
FTUS41 KALY 022333
TAFPOU
TAF
KPOU 022333Z 0300/0324 00000KT P6SM SKC
     FM030800 00000KT 4SM BR SKC
     FM031300 33003KT P6SM FEW050
     FM032200 33005KT P6SM VCSH BKN050=



000
FTUS41 KALY 022333
TAFGFL
TAF
KGFL 022333Z 0300/0324 00000KT P6SM SKC
     FM030400 00000KT 3SM BR FEW002
     FM030600 00000KT 1/2SM FG VV002
     FM031300 06005KT P6SM BKN050
     FM032000 06005KT P6SM VCSH BKN050=



000
FTUS41 KALY 022333
TAFALB
TAF
KALB 022333Z 0300/0324 VRB05KT P6SM SKC
     FM030800 00000KT 3SM BR FEW005
     FM031300 34005KT P6SM SCT050
     FM032100 34005KT P6SM VCSH BKN050=



000
FTUS41 KALY 022333
TAFPOU
TAF
KPOU 022333Z 0300/0324 00000KT P6SM SKC
     FM030800 00000KT 4SM BR SKC
     FM031300 33003KT P6SM FEW050
     FM032200 33005KT P6SM VCSH BKN050=



000
FTUS41 KALY 022333
TAFGFL
TAF
KGFL 022333Z 0300/0324 00000KT P6SM SKC
     FM030400 00000KT 3SM BR FEW002
     FM030600 00000KT 1/2SM FG VV002
     FM031300 06005KT P6SM BKN050
     FM032000 06005KT P6SM VCSH BKN050=



000
FTUS41 KALY 021726
TAFGFL
TAF
KGFL 021726Z 0218/0318 16005KT P6SM FEW045
     FM030000 00000KT P6SM SKC
     FM030400 00000KT 2SM BR FEW002
     FM030600 00000KT 1/2SM FG VV002
     FM031300 06005KT P6SM BKN050=



000
FTUS41 KALY 021726
TAFALB
TAF
KALB 021726Z 0218/0318 30005KT P6SM SCT040
     FM030000 VRB03KT P6SM SKC
     FM030800 00000KT 3SM BR FEW005
     FM031300 34005KT P6SM SCT050=



000
FTUS41 KALY 021726
TAFPOU
TAF
KPOU 021726Z 0218/0318 00000KT P6SM FEW045
     FM030000 00000KT P6SM SKC
     FM030800 00000KT 4SM BR SKC
     FM031300 33003KT P6SM FEW050=



000
FTUS41 KALY 021726
TAFPOU
TAF
KPOU 021726Z 0218/0318 00000KT P6SM FEW045
     FM030000 00000KT P6SM SKC
     FM030800 00000KT 4SM BR SKC
     FM031300 33003KT P6SM FEW050=



000
FTUS41 KALY 021726
TAFALB
TAF
KALB 021726Z 0218/0318 30005KT P6SM SCT040
     FM030000 VRB03KT P6SM SKC
     FM030800 00000KT 3SM BR FEW005
     FM031300 34005KT P6SM SCT050=



000
FTUS41 KALY 021726
TAFGFL
TAF
KGFL 021726Z 0218/0318 16005KT P6SM FEW045
     FM030000 00000KT P6SM SKC
     FM030400 00000KT 2SM BR FEW002
     FM030600 00000KT 1/2SM FG VV002
     FM031300 06005KT P6SM BKN050=



000
FTUS41 KALY 021404 AAB
TAFGFL
TAF AMD
KGFL 021404Z 0214/0312 00000KT 3SM BR OVC002
      TEMPO 0214/0215 6SM BR SCT002
     FM021500 17005KT P6SM FEW040
     FM030000 VRB02KT 6SM BR SKC
     FM030500 00000KT 3SM BR FEW002=



000
FTUS41 KALY 021404 AAB
TAFGFL
TAF AMD
KGFL 021404Z 0214/0312 00000KT 3SM BR OVC002
      TEMPO 0214/0215 6SM BR SCT002
     FM021500 17005KT P6SM FEW040
     FM030000 VRB02KT 6SM BR SKC
     FM030500 00000KT 3SM BR FEW002=



000
FTUS41 KALY 021313 AAA
TAFGFL
TAF AMD
KGFL 021313Z 0213/0312 00000KT 3/4SM BR VV002
      TEMPO 0213/0214 4SM BR SCT002
     FM021400 17005KT P6SM FEW040
     FM030000 VRB02KT 6SM BR SKC
     FM030500 00000KT 3SM BR FEW002=



000
FTUS41 KALY 021313 AAA
TAFGFL
TAF AMD
KGFL 021313Z 0213/0312 00000KT 3/4SM BR VV002
      TEMPO 0213/0214 4SM BR SCT002
     FM021400 17005KT P6SM FEW040
     FM030000 VRB02KT 6SM BR SKC
     FM030500 00000KT 3SM BR FEW002=



000
FTUS41 KALY 021146
TAFPOU
TAF
KPOU 021146Z 0212/0312 00000KT P6SM SKC
     FM021500 24004KT P6SM SKC
     FM030000 00000KT 6SM BR SKC
     FM030500 00000KT 3SM BR SKC=



000
FTUS41 KALY 021146
TAFALB
TAF
KALB 021146Z 0212/0312 00000KT P6SM SKC
      TEMPO 0212/0213 5SM BR FEW005
     FM021500 29005KT P6SM FEW040
     FM030000 VRB03KT 6SM BR FEW035=



000
FTUS41 KALY 021146
TAFGFL
TAF
KGFL 021146Z 0212/0312 00000KT 1/4SM FG VV002
      TEMPO 0212/0213 3SM BR SCT002
     FM021300 VRB02KT 6SM BR FEW005
      TEMPO 0213/0214 4SM BR SCT005
     FM021400 17005KT P6SM FEW040
     FM030000 VRB02KT 6SM BR SKC
     FM030500 00000KT 3SM BR FEW002=



000
FTUS41 KALY 020539 CCA
TAFGFL
TAF COR
KGFL 020539Z 0206/0306 00000KT 3SM BR BKN002
     FM020800 00000KT 1/2SM FG VV002
     FM021330 VRB03KT 4SM BR SCT002
     FM021500 17005KT P6SM FEW040
     FM030000 VRB02KT 6SM BR SKC=



000
FTUS41 KALY 020539 CCA
TAFGFL
TAF COR
KGFL 020539Z 0206/0306 00000KT 3SM BR BKN002
     FM020800 00000KT 1/2SM FG VV002
     FM021330 VRB03KT 4SM BR SCT002
     FM021500 17005KT P6SM FEW040
     FM030000 VRB02KT 6SM BR SKC=



000
FTUS41 KALY 020531
TAFGFL
TAF
KGFL 020531Z 0206/0306 00000KT 3SM BR SCT002
     FM020800 00000KT 1/2SM FG VV002
     FM021330 VRB03KT 4SM BR SCT002
     FM021500 17005KT P6SM FEW040
     FM030000 VRB02KT 6SM BR SKC=



000
FTUS41 KALY 020531
TAFALB
TAF
KALB 020531Z 0206/0306 VRB02KT P6SM SKC
     FM020900 00000KT 5SM BR MIFG SKC
      TEMPO 0210/0212 2SM BR SCT002
     FM021300 27004KT P6SM FEW002
     FM021500 29005KT P6SM FEW040
     FM030000 VRB03KT 6SM BR FEW035=



000
FTUS41 KALY 020531
TAFPOU
TAF
KPOU 020531Z 0206/0306 00000KT 6SM BR SKC
     FM020900 00000KT 3SM BR SKC
     FM021300 23004KT P6SM SKC
     FM030000 00000KT 6SM BR SKC=



000
FTUS41 KALY 020531
TAFGFL
TAF
KGFL 020531Z 0206/0306 00000KT 3SM BR SCT002
     FM020800 00000KT 1/2SM FG VV002
     FM021330 VRB03KT 4SM BR SCT002
     FM021500 17005KT P6SM FEW040
     FM030000 VRB02KT 6SM BR SKC=



000
FTUS41 KALY 020531
TAFPOU
TAF
KPOU 020531Z 0206/0306 00000KT 6SM BR SKC
     FM020900 00000KT 3SM BR SKC
     FM021300 23004KT P6SM SKC
     FM030000 00000KT 6SM BR SKC=



000
FTUS41 KALY 020531
TAFALB
TAF
KALB 020531Z 0206/0306 VRB02KT P6SM SKC
     FM020900 00000KT 5SM BR MIFG SKC
      TEMPO 0210/0212 2SM BR SCT002
     FM021300 27004KT P6SM FEW002
     FM021500 29005KT P6SM FEW040
     FM030000 VRB03KT 6SM BR FEW035=



000
FTUS41 KALY 012332
TAFALB
TAF
KALB 012332Z 0200/0224 VRB03KT P6SM SKC
     FM020900 00000KT 5SM BR MIFG SKC
     FM021300 24004KT P6SM FEW030=



000
FTUS41 KALY 012332
TAFGFL
TAF
KGFL 012332Z 0200/0224 00000KT P6SM SKC
     FM020600 00000KT 3SM BR SKC
     FM020900 00000KT 1/2SM FG VV002
     FM021300 VRB03KT 4SM BR SCT002 SCT006
     FM021400 17005KT P6SM SKC=



000
FTUS41 KALY 012332
TAFPOU
TAF
KPOU 012332Z 0200/0224 00000KT P6SM SKC
     FM020600 00000KT 6SM BR SKC
     FM020900 00000KT 3SM BR SKC
     FM021300 23004KT P6SM SCT250=



000
FTUS41 KALY 011720
TAFGFL
TAF
KGFL 011720Z 0118/0218 16005KT P6SM FEW035
     FM020000 00000KT P6SM SKC
     FM020500 00000KT 3SM BR SKC
     FM020800 00000KT 1/2SM FG VV002
     FM021300 VRB03KT 4SM BR SCT002 SCT006
     FM021400 17005KT P6SM SKC=



000
FTUS41 KALY 011720
TAFPOU
TAF
KPOU 011720Z 0118/0218 32004KT P6SM FEW040
     FM012300 00000KT P6SM SKC
     FM020600 00000KT 6SM BR SKC
     FM020900 00000KT 3SM BR SKC
     FM021300 VRB03KT P6SM SCT250=



000
FTUS41 KALY 011720
TAFALB
TAF
KALB 011720Z 0118/0218 VRB05KT P6SM FEW035
     FM020000 VRB03KT P6SM SKC
     FM020900 00000KT 5SM BR MIFG SKC
     FM021300 VRB04KT P6SM FEW030=



000
FTUS41 KALY 011720
TAFPOU
TAF
KPOU 011720Z 0118/0218 32004KT P6SM FEW040
     FM012300 00000KT P6SM SKC
     FM020600 00000KT 6SM BR SKC
     FM020900 00000KT 3SM BR SKC
     FM021300 VRB03KT P6SM SCT250=



000
FTUS41 KALY 011720
TAFALB
TAF
KALB 011720Z 0118/0218 VRB05KT P6SM FEW035
     FM020000 VRB03KT P6SM SKC
     FM020900 00000KT 5SM BR MIFG SKC
     FM021300 VRB04KT P6SM FEW030=



000
FTUS41 KALY 011720
TAFGFL
TAF
KGFL 011720Z 0118/0218 16005KT P6SM FEW035
     FM020000 00000KT P6SM SKC
     FM020500 00000KT 3SM BR SKC
     FM020800 00000KT 1/2SM FG VV002
     FM021300 VRB03KT 4SM BR SCT002 SCT006
     FM021400 17005KT P6SM SKC=



000
FTUS41 KALY 011315 AAA
TAFGFL
TAF AMD
KGFL 011315Z 0113/0212 16003KT P6SM SKC
      TEMPO 0113/0114 5SM BR SCT002
     FM011900 18005KT P6SM FEW050
     FM020000 00000KT P6SM SKC
     FM020300 00000KT 3SM BR SKC
     FM020700 00000KT 1/2SM FG VV002=



000
FTUS41 KALY 011140
TAFPOU
TAF
KPOU 011140Z 0112/0212 00000KT P6SM SKC
     FM011300 VRB03KT P6SM SKC=



000
FTUS41 KALY 011140
TAFGFL
TAF
KGFL 011140Z 0112/0212 16003KT P6SM SKC
      TEMPO 0112/0113 5SM BR BKN004
     FM011900 18005KT P6SM FEW050
     FM020000 00000KT P6SM SKC
     FM020300 00000KT 3SM BR SKC
     FM020700 00000KT 1/2SM FG VV002=



000
FTUS41 KALY 011140
TAFALB
TAF
KALB 011140Z 0112/0212 VRB03KT P6SM SKC
     FM011800 VRB05KT P6SM SKC=



000
FTUS41 KALY 011140
TAFGFL
TAF
KGFL 011140Z 0112/0212 16003KT P6SM SKC
      TEMPO 0112/0113 5SM BR BKN004
     FM011900 18005KT P6SM FEW050
     FM020000 00000KT P6SM SKC
     FM020300 00000KT 3SM BR SKC
     FM020700 00000KT 1/2SM FG VV002=



000
FTUS41 KALY 011140
TAFPOU
TAF
KPOU 011140Z 0112/0212 00000KT P6SM SKC
     FM011300 VRB03KT P6SM SKC=



000
FTUS41 KALY 011140
TAFALB
TAF
KALB 011140Z 0112/0212 VRB03KT P6SM SKC
     FM011800 VRB05KT P6SM SKC=



000
FTUS41 KALY 011106 AAC
TAFGFL
TAF AMD
KGFL 011106Z 0111/0206 00000KT 4SM BR SKC
      TEMPO 0111/0112 2SM BR SCT006
     FM011200 VRB03KT 5SM BR SKC
     FM011300 16003KT P6SM SKC
     FM011900 18005KT P6SM FEW050
     FM020000 00000KT P6SM SKC=



000
FTUS41 KALY 011106 AAC
TAFGFL
TAF AMD
KGFL 011106Z 0111/0206 00000KT 4SM BR SKC
      TEMPO 0111/0112 2SM BR SCT006
     FM011200 VRB03KT 5SM BR SKC
     FM011300 16003KT P6SM SKC
     FM011900 18005KT P6SM FEW050
     FM020000 00000KT P6SM SKC=



000
FTUS41 KALY 011105 AAA
TAFPOU
TAF AMD
KPOU 011105Z 0111/0206 00000KT P6SM SKC
      TEMPO 0111/0113 5SM BR
     FM011300 VRB03KT P6SM SKC=



000
FTUS41 KALY 011105 AAA
TAFPOU
TAF AMD
KPOU 011105Z 0111/0206 00000KT P6SM SKC
      TEMPO 0111/0113 5SM BR
     FM011300 VRB03KT P6SM SKC=



000
FTUS41 KALY 010745 AAB
TAFGFL
TAF AMD
KGFL 010745Z 0108/0206 00000KT 3SM BR SKC
      TEMPO 0108/0110 1SM BR SCT002
     FM011000 VRB03KT 5SM BR SKC
     FM011200 16003KT P6SM SKC
     FM011900 18005KT P6SM FEW050
     FM020000 00000KT P6SM SKC=



000
FTUS41 KALY 010745 AAB
TAFGFL
TAF AMD
KGFL 010745Z 0108/0206 00000KT 3SM BR SKC
      TEMPO 0108/0110 1SM BR SCT002
     FM011000 VRB03KT 5SM BR SKC
     FM011200 16003KT P6SM SKC
     FM011900 18005KT P6SM FEW050
     FM020000 00000KT P6SM SKC=



000
FTUS41 KALY 010739 AAA
TAFGFL
TAF AMD
KGFL 010739Z 0108/0206 00000KT 1SM BR SKC
     FM011000 VRB03KT 5SM BR SKC
     FM011200 16003KT P6SM SKC
     FM011900 18005KT P6SM FEW050
     FM020000 00000KT P6SM SKC=



000
FTUS41 KALY 010739 AAA
TAFGFL
TAF AMD
KGFL 010739Z 0108/0206 00000KT 1SM BR SKC
     FM011000 VRB03KT 5SM BR SKC
     FM011200 16003KT P6SM SKC
     FM011900 18005KT P6SM FEW050
     FM020000 00000KT P6SM SKC=



000
FTUS41 KALY 010520
TAFALB
TAF
KALB 010520Z 0106/0206 00000KT P6SM BKN260
     FM011200 VRB03KT P6SM SKC
     FM011800 VRB05KT P6SM SKC=



000
FTUS41 KALY 010520
TAFALB
TAF
KALB 010520Z 0106/0206 00000KT P6SM BKN260
     FM011200 VRB03KT P6SM SKC
     FM011800 VRB05KT P6SM SKC=



000
FTUS41 KALY 010520
TAFPOU
TAF
KPOU 010520Z 0106/0206 00000KT P6SM SKC
     FM011300 VRB03KT P6SM SKC=



000
FTUS41 KALY 010520
TAFGFL
TAF
KGFL 010520Z 0106/0206 00000KT P6SM BKN250
     FM011000 VRB03KT 5SM BR SKC
     FM011200 16003KT P6SM SKC
     FM011900 18005KT P6SM FEW050
     FM020000 00000KT P6SM SKC=



000
FTUS41 KALY 010520
TAFGFL
TAF
KGFL 010520Z 0106/0206 00000KT P6SM BKN250
     FM011000 VRB03KT 5SM BR SKC
     FM011200 16003KT P6SM SKC
     FM011900 18005KT P6SM FEW050
     FM020000 00000KT P6SM SKC=



000
FTUS41 KALY 010520
TAFPOU
TAF
KPOU 010520Z 0106/0206 00000KT P6SM SKC
     FM011300 VRB03KT P6SM SKC=



000
FTUS41 KALY 010408 AAA
TAFGFL
TAF AMD
KGFL 010408Z 0104/0124 02003KT P6SM SKC
     FM010500 00000KT 4SM BR SCT002
     FM011200 VRB03KT 5SM BR SKC
     FM011300 16003KT P6SM SKC
     FM011900 18005KT P6SM FEW050=



000
FTUS41 KALY 010408 AAA
TAFGFL
TAF AMD
KGFL 010408Z 0104/0124 02003KT P6SM SKC
     FM010500 00000KT 4SM BR SCT002
     FM011200 VRB03KT 5SM BR SKC
     FM011300 16003KT P6SM SKC
     FM011900 18005KT P6SM FEW050=



000
FTUS41 KALY 312320
TAFALB
TAF
KALB 312320Z 0100/0124 30008KT P6SM FEW050 FEW070
     FM010300 28003KT P6SM SKC
     FM010900 00000KT 3SM MIFG BR SCT005
     FM011200 VRB03KT P6SM SKC
     FM011800 VRB05KT P6SM SKC=



000
FTUS41 KALY 312320
TAFPOU
TAF
KPOU 312320Z 0100/0124 26005KT P6SM SCT250
     FM010400 00000KT P6SM SKC
     FM010800 00000KT 3SM BR SKC
     FM011300 VRB03KT P6SM SKC=



000
FTUS41 KALY 312320
TAFGFL
TAF
KGFL 312320Z 0100/0124 VRB03KT P6SM FEW080
     FM010300 00000KT 5SM BR SKC
      TEMPO 0103/0105 2SM BR
     FM010500 00000KT 3/4SM BR VV002
     FM011200 VRB03KT 5SM BR SKC
     FM011300 16003KT P6SM SKC
     FM011900 18005KT P6SM FEW050=



000
FTUS41 KALY 312257 AAB
TAFALB
TAF AMD
KALB 312257Z 3123/0118 30008KT P6SM FEW050 FEW070
     FM010300 28004KT P6SM SKC
     FM010800 00000KT 3SM MIFG BR SCT005
     FM011300 VRB04KT P6SM SKC=



000
FTUS41 KALY 312257 AAB
TAFALB
TAF AMD
KALB 312257Z 3123/0118 30008KT P6SM FEW050 FEW070
     FM010300 28004KT P6SM SKC
     FM010800 00000KT 3SM MIFG BR SCT005
     FM011300 VRB04KT P6SM SKC=



000
FTUS41 KALY 312203 AAA
TAFGFL
TAF AMD
KGFL 312203Z 3122/0118 29006KT P6SM BKN080
     FM010000 VRB03KT P6SM FEW080
     FM010300 00000KT 5SM BR SKC
     FM010500 00000KT 3/4SM BR VV002
     FM011200 VRB03KT 5SM BR SKC
     FM011300 16005KT P6SM SKC=



000
FTUS41 KALY 311940 AAA
TAFALB
TAF AMD
KALB 311940Z 3120/0118 30012G18KT P6SM SCT050
     FM010000 30007KT P6SM FEW050
     FM010300 28004KT P6SM SKC
     FM010800 00000KT 3SM MIFG BR SCT005
     FM011300 VRB04KT P6SM SKC=



000
FTUS41 KALY 311731
TAFALB
TAF
KALB 311731Z 3118/0118 28012G18KT P6SM SCT050
     FM312300 29008KT P6SM FEW050
     FM010300 28004KT P6SM SKC
     FM010800 00000KT 3SM MIFG BR SCT005
     FM011300 VRB04KT P6SM SKC=



000
FTUS41 KALY 311731
TAFPOU
TAF
KPOU 311731Z 3118/0118 23008KT P6SM VCSH SCT050 BKN250
     FM312000 28010KT P6SM SCT050 SCT250
     FM010000 VRB03KT P6SM FEW250
     FM010800 00000KT 3SM BR SKC
     FM011300 VRB03KT P6SM SKC=



000
FTUS41 KALY 311731
TAFGFL
TAF
KGFL 311731Z 3118/0118 26010G16KT P6SM SCT045
     FM312300 29007KT P6SM FEW050
     FM010300 VRB03KT 5SM BR SKC
     FM010700 00000KT 3/4SM BR VV002
     FM011300 VRB03KT 6SM BR SKC
     FM011500 16005KT P6SM SKC=



    US Dept of Commerce
    National Oceanic and Atmospheric Administration
    National Weather Service
    1325 East West Highway
    Silver Spring, MD 20910
    Page Author: NWS Internet Services Team
Disclaimer
Information Quality
Credits
Glossary
Privacy Policy
Freedom of Information Act (FOIA)
About Us
Career Opportunities